sensor_id;sensor_type;location;lat;lon;timestamp;pressure;altitude;pressure_sealevel;temperature;humidity
74329;BME280;62749;51.982;5.916;2023-05-09T00:02:04;101566.03;;;15.44;100.00
74329;BME280;62749;51.982;5.916;2023-05-09T00:04:35;101552.91;;;15.41;100.00
74329;BME280;62749;51.982;5.916;2023-05-09T00:07:05;101568.41;;;15.50;100.00
74329;BME280;62749;51.982;5.916;2023-05-09T00:09:35;101559.63;;;15.48;100.00
74329;BME280;62749;51.982;5.916;2023-05-09T00:12:05;101564.50;;;15.57;100.00
74329;BME280;62749;51.982;5.916;2023-05-09T00:14:35;101563.41;;;15.61;100.00
74329;BME280;62749;51.982;5.916;2023-05-09T00:17:06;101563.31;;;15.63;100.00
74329;BME280;62749;51.982;5.916;2023-05-09T00:19:38;101552.09;;;15.56;100.00
74329;BME280;62749;51.982;5.916;2023-05-09T00:22:09;101549.53;;;15.55;100.00
74329;BME280;62749;51.982;5.916;2023-05-09T00:24:38;101543.91;;;15.61;100.00
74329;BME280;62749;51.982;5.916;2023-05-09T00:27:07;101530.66;;;15.59;100.00
74329;BME280;62749;51.982;5.916;2023-05-09T00:29:37;101527.19;;;15.57;100.00
74329;BME280;62749;51.982;5.916;2023-05-09T00:32:07;101528.31;;;15.53;100.00
74329;BME280;62749;51.982;5.916;2023-05-09T00:34:39;101526.75;;;15.49;100.00
74329;BME280;62749;51.982;5.916;2023-05-09T00:37:08;101520.41;;;15.52;100.00
74329;BME280;62749;51.982;5.916;2023-05-09T00:39:38;101523.84;;;15.54;100.00
74329;BME280;62749;51.982;5.916;2023-05-09T00:42:08;101509.13;;;15.46;100.00
74329;BME280;62749;51.982;5.916;2023-05-09T00:44:40;101515.25;;;15.48;100.00
74329;BME280;62749;51.982;5.916;2023-05-09T00:47:10;101511.72;;;15.48;100.00
74329;BME280;62749;51.982;5.916;2023-05-09T00:49:43;101506.94;;;15.55;100.00
74329;BME280;62749;51.982;5.916;2023-05-09T00:52:13;101510.63;;;15.52;100.00
74329;BME280;62749;51.982;5.916;2023-05-09T00:54:43;101510.53;;;15.54;100.00
74329;BME280;62749;51.982;5.916;2023-05-09T00:57:13;101515.00;;;15.53;100.00
74329;BME280;62749;51.982;5.916;2023-05-09T00:59:43;101498.31;;;15.49;100.00
74329;BME280;62749;51.982;5.916;2023-05-09T01:02:13;101505.91;;;15.57;100.00
74329;BME280;62749;51.982;5.916;2023-05-09T01:04:46;101507.72;;;15.57;100.00
74329;BME280;62749;51.982;5.916;2023-05-09T01:07:24;101494.56;;;15.54;100.00
74329;BME280;62749;51.982;5.916;2023-05-09T01:10:01;101491.09;;;15.52;100.00
74329;BME280;62749;51.982;5.916;2023-05-09T01:12:39;101493.53;;;15.56;100.00
74329;BME280;62749;51.982;5.916;2023-05-09T01:15:23;101487.44;;;15.54;100.00
74329;BME280;62749;51.982;5.916;2023-05-09T01:17:59;101486.97;;;15.63;100.00
74329;BME280;62749;51.982;5.916;2023-05-09T01:20:38;101483.41;;;15.63;100.00
74329;BME280;62749;51.982;5.916;2023-05-09T01:23:34;101481.00;;;15.58;100.00
74329;BME280;62749;51.982;5.916;2023-05-09T01:26:18;101471.91;;;15.62;100.00
74329;BME280;62749;51.982;5.916;2023-05-09T01:29:29;101466.75;;;15.59;100.00
74329;BME280;62749;51.982;5.916;2023-05-09T01:32:03;101460.72;;;15.56;100.00
74329;BME280;62749;51.982;5.916;2023-05-09T01:34:37;101463.13;;;15.60;100.00
74329;BME280;62749;51.982;5.916;2023-05-09T01:37:12;101468.72;;;15.56;100.00
74329;BME280;62749;51.982;5.916;2023-05-09T01:39:47;101467.88;;;15.55;100.00
74329;BME280;62749;51.982;5.916;2023-05-09T01:42:19;101463.22;;;15.59;100.00
74329;BME280;62749;51.982;5.916;2023-05-09T01:44:53;101458.16;;;15.54;100.00
74329;BME280;62749;51.982;5.916;2023-05-09T01:47:25;101463.28;;;15.57;100.00
74329;BME280;62749;51.982;5.916;2023-05-09T01:49:56;101456.25;;;15.56;100.00
74329;BME280;62749;51.982;5.916;2023-05-09T01:52:28;101451.56;;;15.61;100.00
74329;BME280;62749;51.982;5.916;2023-05-09T01:55:00;101454.63;;;15.54;100.00
74329;BME280;62749;51.982;5.916;2023-05-09T01:57:32;101459.78;;;15.57;100.00
74329;BME280;62749;51.982;5.916;2023-05-09T02:00:08;101454.56;;;15.55;100.00
74329;BME280;62749;51.982;5.916;2023-05-09T02:02:39;101450.16;;;15.54;100.00
74329;BME280;62749;51.982;5.916;2023-05-09T02:05:09;101437.94;;;15.50;100.00
74329;BME280;62749;51.982;5.916;2023-05-09T02:07:40;101436.31;;;15.47;100.00
74329;BME280;62749;51.982;5.916;2023-05-09T02:10:11;101432.94;;;15.44;100.00
74329;BME280;62749;51.982;5.916;2023-05-09T02:12:40;101431.38;;;15.40;100.00
74329;BME280;62749;51.982;5.916;2023-05-09T02:15:13;101429.56;;;15.40;100.00
74329;BME280;62749;51.982;5.916;2023-05-09T02:17:42;101427.94;;;15.38;100.00
74329;BME280;62749;51.982;5.916;2023-05-09T02:20:11;101440.91;;;15.44;100.00
74329;BME280;62749;51.982;5.916;2023-05-09T02:22:42;101433.97;;;15.41;100.00
74329;BME280;62749;51.982;5.916;2023-05-09T02:25:12;101422.63;;;15.38;100.00
74329;BME280;62749;51.982;5.916;2023-05-09T02:27:45;101434.66;;;15.45;100.00
74329;BME280;62749;51.982;5.916;2023-05-09T02:30:22;101421.44;;;15.43;100.00
74329;BME280;62749;51.982;5.916;2023-05-09T02:32:55;101426.66;;;15.45;100.00
74329;BME280;62749;51.982;5.916;2023-05-09T02:35:27;101417.91;;;15.43;100.00
74329;BME280;62749;51.982;5.916;2023-05-09T02:37:58;101411.09;;;15.37;100.00
74329;BME280;62749;51.982;5.916;2023-05-09T02:40:29;101405.84;;;15.36;100.00
74329;BME280;62749;51.982;5.916;2023-05-09T02:42:59;101416.50;;;15.36;100.00
74329;BME280;62749;51.982;5.916;2023-05-09T02:45:31;101412.13;;;15.34;100.00
74329;BME280;62749;51.982;5.916;2023-05-09T02:48:00;101410.16;;;15.38;100.00
74329;BME280;62749;51.982;5.916;2023-05-09T02:50:29;101419.00;;;15.39;100.00
74329;BME280;62749;51.982;5.916;2023-05-09T02:52:59;101419.84;;;15.39;100.00
74329;BME280;62749;51.982;5.916;2023-05-09T02:55:29;101405.84;;;15.36;100.00
74329;BME280;62749;51.982;5.916;2023-05-09T02:57:59;101414.78;;;15.34;100.00
74329;BME280;62749;51.982;5.916;2023-05-09T03:00:31;101414.63;;;15.38;100.00
74329;BME280;62749;51.982;5.916;2023-05-09T03:03:01;101402.88;;;15.42;100.00
74329;BME280;62749;51.982;5.916;2023-05-09T03:05:30;101405.00;;;15.35;100.00
74329;BME280;62749;51.982;5.916;2023-05-09T03:07:59;101405.84;;;15.36;100.00
74329;BME280;62749;51.982;5.916;2023-05-09T03:10:29;101395.13;;;15.37;100.00
74329;BME280;62749;51.982;5.916;2023-05-09T03:12:58;101390.97;;;15.31;100.00
74329;BME280;62749;51.982;5.916;2023-05-09T03:15:27;101393.63;;;15.31;100.00
74329;BME280;62749;51.982;5.916;2023-05-09T03:17:59;101390.97;;;15.31;100.00
74329;BME280;62749;51.982;5.916;2023-05-09T03:20:29;101388.25;;;15.33;100.00
74329;BME280;62749;51.982;5.916;2023-05-09T03:22:58;101389.25;;;15.30;100.00
74329;BME280;62749;51.982;5.916;2023-05-09T03:25:27;101383.00;;;15.31;100.00
74329;BME280;62749;51.982;5.916;2023-05-09T03:27:57;101392.09;;;15.27;100.00
74329;BME280;62749;51.982;5.916;2023-05-09T03:30:27;101382.84;;;15.34;100.00
74329;BME280;62749;51.982;5.916;2023-05-09T03:32:59;101381.28;;;15.30;100.00
74329;BME280;62749;51.982;5.916;2023-05-09T03:35:30;101383.94;;;15.30;100.00
74329;BME280;62749;51.982;5.916;2023-05-09T03:37:59;101385.75;;;15.30;100.00
74329;BME280;62749;51.982;5.916;2023-05-09T03:40:28;101370.72;;;15.29;100.00
74329;BME280;62749;51.982;5.916;2023-05-09T03:42:58;101362.81;;;15.27;100.00
74329;BME280;62749;51.982;5.916;2023-05-09T03:45:27;101363.75;;;15.26;100.00
74329;BME280;62749;51.982;5.916;2023-05-09T03:47:59;101369.41;;;15.20;100.00
74329;BME280;62749;51.982;5.916;2023-05-09T03:50:30;101352.03;;;15.13;100.00
74329;BME280;62749;51.982;5.916;2023-05-09T03:53:00;101368.22;;;15.26;100.00
74329;BME280;62749;51.982;5.916;2023-05-09T03:55:29;101366.19;;;15.31;100.00
74329;BME280;62749;51.982;5.916;2023-05-09T03:57:59;101362.88;;;15.26;100.00
74329;BME280;62749;51.982;5.916;2023-05-09T04:00:28;101355.25;;;15.19;100.00
74329;BME280;62749;51.982;5.916;2023-05-09T04:03:00;101356.88;;;15.22;100.00
74329;BME280;62749;51.982;5.916;2023-05-09T04:05:30;101341.78;;;15.23;100.00
74329;BME280;62749;51.982;5.916;2023-05-09T04:08:00;101341.78;;;15.23;100.00
74329;BME280;62749;51.982;5.916;2023-05-09T04:10:30;101341.31;;;15.14;100.00
74329;BME280;62749;51.982;5.916;2023-05-09T04:13:00;101336.22;;;15.10;100.00
74329;BME280;62749;51.982;5.916;2023-05-09T04:15:29;101344.84;;;15.15;100.00
74329;BME280;62749;51.982;5.916;2023-05-09T04:18:01;101331.59;;;15.13;100.00
74329;BME280;62749;51.982;5.916;2023-05-09T04:20:31;101327.47;;;15.08;100.00
74329;BME280;62749;51.982;5.916;2023-05-09T04:23:01;101328.88;;;15.15;100.00
74329;BME280;62749;51.982;5.916;2023-05-09T04:25:31;101331.59;;;15.13;100.00
74329;BME280;62749;51.982;5.916;2023-05-09T04:28:01;101341.31;;;15.14;100.00
74329;BME280;62749;51.982;5.916;2023-05-09T04:30:30;101341.25;;;15.16;100.00
74329;BME280;62749;51.982;5.916;2023-05-09T04:33:02;101337.63;;;15.17;100.00
74329;BME280;62749;51.982;5.916;2023-05-09T04:35:32;101344.75;;;15.16;100.00
74329;BME280;62749;51.982;5.916;2023-05-09T04:38:02;101336.91;;;15.13;100.00
74329;BME280;62749;51.982;5.916;2023-05-09T04:40:31;101341.06;;;15.19;100.00
74329;BME280;62749;51.982;5.916;2023-05-09T04:43:02;101339.44;;;15.16;100.00
74329;BME280;62749;51.982;5.916;2023-05-09T04:45:32;101339.44;;;15.16;100.00
74329;BME280;62749;51.982;5.916;2023-05-09T04:48:04;101333.16;;;15.17;100.00
74329;BME280;62749;51.982;5.916;2023-05-09T04:50:34;101326.81;;;15.20;100.00
74329;BME280;62749;51.982;5.916;2023-05-09T04:53:03;101326.03;;;15.18;100.00
74329;BME280;62749;51.982;5.916;2023-05-09T04:55:34;101317.44;;;15.13;99.79
74329;BME280;62749;51.982;5.916;2023-05-09T04:58:03;101312.13;;;15.13;99.50
74329;BME280;62749;51.982;5.916;2023-05-09T05:00:34;101319.06;;;15.15;99.10
74329;BME280;62749;51.982;5.916;2023-05-09T05:03:07;101316.56;;;15.12;99.33
74329;BME280;62749;51.982;5.916;2023-05-09T05:05:36;101303.66;;;15.04;98.82
74329;BME280;62749;51.982;5.916;2023-05-09T05:08:07;101303.59;;;15.06;99.18
74329;BME280;62749;51.982;5.916;2023-05-09T05:10:36;101304.41;;;15.08;99.30
74329;BME280;62749;51.982;5.916;2023-05-09T05:13:06;101300.84;;;15.08;99.40
74329;BME280;62749;51.982;5.916;2023-05-09T05:15:35;101310.53;;;15.26;99.79
74329;BME280;62749;51.982;5.916;2023-05-09T05:18:07;101307.25;;;15.21;99.24
74329;BME280;62749;51.982;5.916;2023-05-09T05:20:39;101298.94;;;15.27;99.13
74329;BME280;62749;51.982;5.916;2023-05-09T05:23:09;101295.03;;;15.17;98.65
74329;BME280;62749;51.982;5.916;2023-05-09T05:25:39;101289.28;;;15.09;98.07
74329;BME280;62749;51.982;5.916;2023-05-09T05:28:08;101285.78;;;15.08;98.21
74329;BME280;62749;51.982;5.916;2023-05-09T05:30:39;101289.91;;;15.14;97.83
74329;BME280;62749;51.982;5.916;2023-05-09T05:33:12;101286.09;;;15.18;97.98
74329;BME280;62749;51.982;5.916;2023-05-09T05:35:42;101288.78;;;15.18;97.08
74329;BME280;62749;51.982;5.916;2023-05-09T05:38:12;101280.56;;;15.23;97.87
74329;BME280;62749;51.982;5.916;2023-05-09T05:40:42;101275.94;;;15.26;97.80
74329;BME280;62749;51.982;5.916;2023-05-09T05:43:11;101286.06;;;15.36;97.78
74329;BME280;62749;51.982;5.916;2023-05-09T05:45:41;101279.28;;;15.30;97.20
74329;BME280;62749;51.982;5.916;2023-05-09T05:48:13;101268.06;;;15.41;97.56
74329;BME280;62749;51.982;5.916;2023-05-09T05:50:43;101265.81;;;15.33;95.90
74329;BME280;62749;51.982;5.916;2023-05-09T05:53:12;101262.28;;;15.32;96.13
74329;BME280;62749;51.982;5.916;2023-05-09T05:55:42;101269.16;;;15.37;96.26
74329;BME280;62749;51.982;5.916;2023-05-09T05:58:12;101268.66;;;15.46;95.40
74329;BME280;62749;51.982;5.916;2023-05-09T06:00:42;101255.16;;;15.33;95.26
74329;BME280;62749;51.982;5.916;2023-05-09T06:03:14;101258.94;;;15.45;95.33
74329;BME280;62749;51.982;5.916;2023-05-09T06:05:46;101248.72;;;15.37;95.06
74329;BME280;62749;51.982;5.916;2023-05-09T06:08:16;101256.16;;;15.30;93.62
74329;BME280;62749;51.982;5.916;2023-05-09T06:10:45;101248.56;;;15.40;93.52
74329;BME280;62749;51.982;5.916;2023-05-09T06:13:14;101252.50;;;15.49;94.39
74329;BME280;62749;51.982;5.916;2023-05-09T06:15:44;101232.16;;;15.48;93.54
74329;BME280;62749;51.982;5.916;2023-05-09T06:18:16;101232.84;;;15.52;93.77
74329;BME280;62749;51.982;5.916;2023-05-09T06:20:45;101230.94;;;15.54;94.21
74329;BME280;62749;51.982;5.916;2023-05-09T06:23:14;101230.38;;;15.48;92.97
74329;BME280;62749;51.982;5.916;2023-05-09T06:25:47;101236.00;;;15.58;92.40
74329;BME280;62749;51.982;5.916;2023-05-09T06:28:17;101226.50;;;15.54;92.58
74329;BME280;62749;51.982;5.916;2023-05-09T06:30:46;101227.19;;;15.58;92.88
74329;BME280;62749;51.982;5.916;2023-05-09T06:33:18;101228.72;;;15.78;90.18
74329;BME280;62749;51.982;5.916;2023-05-09T06:35:51;101223.66;;;15.73;91.29
74329;BME280;62749;51.982;5.916;2023-05-09T06:38:20;101223.38;;;15.78;91.89
74329;BME280;62749;51.982;5.916;2023-05-09T06:40:50;101209.56;;;15.87;91.89
74329;BME280;62749;51.982;5.916;2023-05-09T06:43:20;101215.56;;;16.07;90.27
74329;BME280;62749;51.982;5.916;2023-05-09T06:45:49;101216.91;;;16.14;88.83
74329;BME280;62749;51.982;5.916;2023-05-09T06:48:21;101209.84;;;16.13;89.49
74329;BME280;62749;51.982;5.916;2023-05-09T06:50:52;101204.16;;;16.19;88.16
74329;BME280;62749;51.982;5.916;2023-05-09T06:53:21;101185.47;;;16.05;88.90
74329;BME280;62749;51.982;5.916;2023-05-09T06:55:51;101186.69;;;15.99;89.86
74329;BME280;62749;51.982;5.916;2023-05-09T06:58:20;101192.41;;;16.07;88.83
74329;BME280;62749;51.982;5.916;2023-05-09T07:00:50;101194.03;;;16.10;90.20
74329;BME280;62749;51.982;5.916;2023-05-09T07:03:22;101182.16;;;16.16;89.57
74329;BME280;62749;51.982;5.916;2023-05-09T07:05:51;101184.78;;;16.32;88.68
74329;BME280;62749;51.982;5.916;2023-05-09T07:08:24;101178.28;;;16.36;88.71
74329;BME280;62749;51.982;5.916;2023-05-09T07:10:53;101183.09;;;16.45;88.55
74329;BME280;62749;51.982;5.916;2023-05-09T07:13:23;101181.16;;;16.47;86.95
74329;BME280;62749;51.982;5.916;2023-05-09T07:15:52;101165.84;;;16.51;85.54
74329;BME280;62749;51.982;5.916;2023-05-09T07:18:25;101177.66;;;16.47;86.84
74329;BME280;62749;51.982;5.916;2023-05-09T07:20:55;101168.13;;;16.42;83.69
74329;BME280;62749;51.982;5.916;2023-05-09T07:23:24;101164.31;;;16.47;86.22
74329;BME280;62749;51.982;5.916;2023-05-09T07:25:57;101159.81;;;16.47;85.81
74329;BME280;62749;51.982;5.916;2023-05-09T07:28:26;101165.16;;;16.47;84.74
74329;BME280;62749;51.982;5.916;2023-05-09T07:30:56;101158.31;;;16.43;86.48
74329;BME280;62749;51.982;5.916;2023-05-09T07:33:28;101160.91;;;16.59;85.09
74329;BME280;62749;51.982;5.916;2023-05-09T07:35:58;101154.97;;;16.54;86.02
74329;BME280;62749;51.982;5.916;2023-05-09T07:38:27;101159.63;;;16.36;86.04
74329;BME280;62749;51.982;5.916;2023-05-09T07:40:57;101153.03;;;16.27;86.22
74329;BME280;62749;51.982;5.916;2023-05-09T07:43:26;101138.78;;;16.42;87.70
74329;BME280;62749;51.982;5.916;2023-05-09T07:45:56;101141.38;;;16.59;86.45
74329;BME280;62749;51.982;5.916;2023-05-09T07:48:28;101140.41;;;16.74;85.29
74329;BME280;62749;51.982;5.916;2023-05-09T07:50:57;101138.50;;;16.76;86.53
74329;BME280;62749;51.982;5.916;2023-05-09T07:53:27;101123.75;;;16.70;84.84
74329;BME280;62749;51.982;5.916;2023-05-09T07:55:56;101121.66;;;16.76;85.22
74329;BME280;62749;51.982;5.916;2023-05-09T07:58:26;101123.63;;;16.86;85.46
74329;BME280;62749;51.982;5.916;2023-05-09T08:00:55;101119.81;;;16.91;84.47
74329;BME280;62749;51.982;5.916;2023-05-09T08:03:28;101122.13;;;16.82;83.44
74329;BME280;62749;51.982;5.916;2023-05-09T08:05:57;101120.50;;;16.80;84.71
74329;BME280;62749;51.982;5.916;2023-05-09T08:08:27;101118.41;;;16.99;83.40
74329;BME280;62749;51.982;5.916;2023-05-09T08:10:56;101103.63;;;16.94;83.23
74329;BME280;62749;51.982;5.916;2023-05-09T08:13:25;101109.16;;;16.91;83.95
74329;BME280;62749;51.982;5.916;2023-05-09T08:15:55;101108.50;;;17.01;84.77
74329;BME280;62749;51.982;5.916;2023-05-09T08:18:27;101104.13;;;17.00;83.55
74329;BME280;62749;51.982;5.916;2023-05-09T08:20:57;101091.63;;;17.01;84.41
74329;BME280;62749;51.982;5.916;2023-05-09T08:23:26;101104.13;;;17.00;83.83
74329;BME280;62749;51.982;5.916;2023-05-09T08:25:56;101043.44;;;16.75;82.74
74329;BME280;62749;51.982;5.916;2023-05-09T08:28:25;101099.91;;;17.11;81.39
74329;BME280;62749;51.982;5.916;2023-05-09T08:30:55;101096.06;;;17.15;81.05
74329;BME280;62749;51.982;5.916;2023-05-09T08:33:24;101081.97;;;17.13;82.09
74329;BME280;62749;51.982;5.916;2023-05-09T08:35:56;101089.59;;;17.05;81.92
74329;BME280;62749;51.982;5.916;2023-05-09T08:38:26;101081.50;;;16.92;83.51
74329;BME280;62749;51.982;5.916;2023-05-09T08:40:58;101084.94;;;16.94;83.67
74329;BME280;62749;51.982;5.916;2023-05-09T08:43:28;101090.84;;;16.99;82.24
74329;BME280;62749;51.982;5.916;2023-05-09T08:46:02;101083.91;;;16.82;83.19
74329;BME280;62749;51.982;5.916;2023-05-09T08:48:42;101075.81;;;16.83;83.01
74329;BME280;62749;51.982;5.916;2023-05-09T08:51:15;101072.94;;;16.86;82.58
74329;BME280;62749;51.982;5.916;2023-05-09T08:53:46;101067.28;;;16.91;82.45
74329;BME280;62749;51.982;5.916;2023-05-09T08:56:16;101067.28;;;16.91;82.95
74329;BME280;62749;51.982;5.916;2023-05-09T08:58:46;101067.06;;;16.96;82.45
74329;BME280;62749;51.982;5.916;2023-05-09T09:01:16;101059.22;;;16.93;83.00
74329;BME280;62749;51.982;5.916;2023-05-09T09:03:46;101066.59;;;17.16;81.96
74329;BME280;62749;51.982;5.916;2023-05-09T09:06:19;101053.38;;;17.15;82.45
74329;BME280;62749;51.982;5.916;2023-05-09T09:08:53;101060.16;;;17.06;83.44
74329;BME280;62749;51.982;5.916;2023-05-09T09:11:23;101052.03;;;17.08;82.75
74329;BME280;62749;51.982;5.916;2023-05-09T09:13:54;101054.72;;;16.93;83.16
74329;BME280;62749;51.982;5.916;2023-05-09T09:16:29;101058.25;;;16.94;82.87
74329;BME280;62749;51.982;5.916;2023-05-09T09:18:59;101052.53;;;16.85;83.41
74329;BME280;62749;51.982;5.916;2023-05-09T09:21:32;101054.00;;;16.77;84.71
74329;BME280;62749;51.982;5.916;2023-05-09T09:24:02;101042.97;;;16.68;84.84
74329;BME280;62749;51.982;5.916;2023-05-09T09:26:34;101045.53;;;16.84;84.18
74329;BME280;62749;51.982;5.916;2023-05-09T09:29:04;101056.53;;;16.93;82.85
74329;BME280;62749;51.982;5.916;2023-05-09T09:31:52;101047.44;;;16.82;84.63
74329;BME280;62749;51.982;5.916;2023-05-09T09:34:22;101041.03;;;16.85;84.53
74329;BME280;62749;51.982;5.916;2023-05-09T09:36:54;101039.66;;;16.92;83.41
74329;BME280;62749;51.982;5.916;2023-05-09T09:39:24;101040.25;;;16.97;83.79
74329;BME280;62749;51.982;5.916;2023-05-09T09:41:53;101036.75;;;16.97;81.17
74329;BME280;62749;51.982;5.916;2023-05-09T09:44:23;101039.41;;;16.97;82.40
74329;BME280;62749;51.982;5.916;2023-05-09T09:46:54;101045.44;;;17.13;81.37
74329;BME280;62749;51.982;5.916;2023-05-09T09:49:25;101038.63;;;17.09;81.77
74329;BME280;62749;51.982;5.916;2023-05-09T09:51:57;101032.59;;;16.91;81.96
74329;BME280;62749;51.982;5.916;2023-05-09T09:54:27;101034.09;;;16.97;82.17
74329;BME280;62749;51.982;5.916;2023-05-09T09:56:57;101038.06;;;17.04;81.93
74329;BME280;62749;51.982;5.916;2023-05-09T09:59:27;101038.38;;;17.12;80.83
74329;BME280;62749;51.982;5.916;2023-05-09T10:01:59;101028.75;;;16.97;80.90
74329;BME280;62749;51.982;5.916;2023-05-09T10:04:32;101017.91;;;17.13;80.42
74329;BME280;62749;51.982;5.916;2023-05-09T10:07:06;101026.50;;;17.31;80.74
74329;BME280;62749;51.982;5.916;2023-05-09T10:09:36;101018.75;;;17.41;79.40
74329;BME280;62749;51.982;5.916;2023-05-09T10:12:07;101020.34;;;17.43;80.06
74329;BME280;62749;51.982;5.916;2023-05-09T10:14:41;101012.09;;;17.33;79.40
74329;BME280;62749;51.982;5.916;2023-05-09T10:17:13;101026.13;;;17.50;79.19
74329;BME280;62749;51.982;5.916;2023-05-09T10:19:45;101026.44;;;17.58;77.71
74329;BME280;62749;51.982;5.916;2023-05-09T10:22:19;101015.88;;;17.57;78.45
74329;BME280;62749;51.982;5.916;2023-05-09T10:24:53;101007.75;;;17.58;77.37
74329;BME280;62749;51.982;5.916;2023-05-09T10:27:27;101014.69;;;17.48;75.74
74329;BME280;62749;51.982;5.916;2023-05-09T10:30:02;101016.72;;;17.44;76.91
74329;BME280;62749;51.982;5.916;2023-05-09T10:32:40;101002.81;;;17.39;75.56
74329;BME280;62749;51.982;5.916;2023-05-09T10:35:13;100996.88;;;17.48;75.80
74329;BME280;62749;51.982;5.916;2023-05-09T10:37:47;100994.31;;;17.60;77.59
74329;BME280;62749;51.982;5.916;2023-05-09T10:40:18;100985.84;;;17.66;76.97
74329;BME280;62749;51.982;5.916;2023-05-09T10:42:48;100994.09;;;17.76;77.01
74329;BME280;62749;51.982;5.916;2023-05-09T10:45:19;100989.72;;;17.75;77.26
74329;BME280;62749;51.982;5.916;2023-05-09T10:47:50;100993.91;;;17.79;78.11
74329;BME280;62749;51.982;5.916;2023-05-09T10:50:22;100991.00;;;17.82;76.85
74329;BME280;62749;51.982;5.916;2023-05-09T10:53:07;100980.19;;;17.58;78.95
74329;BME280;62749;51.982;5.916;2023-05-09T10:55:48;100973.56;;;17.38;79.47
74329;BME280;62749;51.982;5.916;2023-05-09T10:58:21;100978.84;;;17.25;81.82
74329;BME280;62749;51.982;5.916;2023-05-09T11:00:54;100981.00;;;17.20;83.56
74329;BME280;62749;51.982;5.916;2023-05-09T11:03:23;100980.38;;;17.29;84.21
74329;BME280;62749;51.982;5.916;2023-05-09T11:05:55;100975.53;;;17.08;83.06
74329;BME280;62749;51.982;5.916;2023-05-09T11:08:29;100966.75;;;17.06;83.29
74329;BME280;62749;51.982;5.916;2023-05-09T11:11:05;100975.53;;;16.94;85.23
74329;BME280;62749;51.982;5.916;2023-05-09T11:13:36;100981.06;;;16.91;85.80
74329;BME280;62749;51.982;5.916;2023-05-09T11:16:10;100968.16;;;16.84;86.63
74329;BME280;62749;51.982;5.916;2023-05-09T11:18:50;100961.59;;;16.76;87.32
74329;BME280;62749;51.982;5.916;2023-05-09T11:21:20;100961.53;;;16.63;86.88
74329;BME280;62749;51.982;5.916;2023-05-09T11:23:52;100959.38;;;16.40;88.44
74329;BME280;62749;51.982;5.916;2023-05-09T11:26:28;100965.25;;;16.33;89.67
74329;BME280;62749;51.982;5.916;2023-05-09T11:28:58;100964.38;;;16.18;91.20
74329;BME280;62749;51.982;5.916;2023-05-09T11:31:28;100954.19;;;16.10;92.91
74329;BME280;62749;51.982;5.916;2023-05-09T11:34:00;100954.19;;;16.24;93.01
74329;BME280;62749;51.982;5.916;2023-05-09T11:36:47;100954.66;;;16.17;93.56
74329;BME280;62749;51.982;5.916;2023-05-09T11:39:24;100956.09;;;16.22;92.05
74329;BME280;62749;51.982;5.916;2023-05-09T11:41:55;100954.78;;;16.15;92.13
74329;BME280;62749;51.982;5.916;2023-05-09T11:44:26;100952.47;;;15.94;91.56
74329;BME280;62749;51.982;5.916;2023-05-09T11:46:57;100948.78;;;15.97;94.31
74329;BME280;62749;51.982;5.916;2023-05-09T11:49:27;100946.22;;;15.95;93.71
74329;BME280;62749;51.982;5.916;2023-05-09T11:51:58;100938.50;;;15.91;93.74
74329;BME280;62749;51.982;5.916;2023-05-09T11:54:30;100945.19;;;15.98;93.72
74329;BME280;62749;51.982;5.916;2023-05-09T11:56:59;100939.94;;;15.97;94.55
74329;BME280;62749;51.982;5.916;2023-05-09T11:59:29;100934.59;;;16.11;93.91
74329;BME280;62749;51.982;5.916;2023-05-09T12:02:02;100930.88;;;16.14;93.88
74329;BME280;62749;51.982;5.916;2023-05-09T12:04:32;100916.34;;;16.05;94.19
74329;BME280;62749;51.982;5.916;2023-05-09T12:07:02;100919.38;;;15.99;93.64
74329;BME280;62749;51.982;5.916;2023-05-09T12:09:34;100920.34;;;15.98;94.48
74329;BME280;62749;51.982;5.916;2023-05-09T12:12:09;100904.44;;;15.96;92.77
74329;BME280;62749;51.982;5.916;2023-05-09T12:14:40;100910.38;;;15.87;92.66
74329;BME280;62749;51.982;5.916;2023-05-09T12:17:10;100910.06;;;15.91;92.46
74329;BME280;62749;51.982;5.916;2023-05-09T12:19:39;100904.53;;;15.80;93.18
74329;BME280;62749;51.982;5.916;2023-05-09T12:22:08;100894.25;;;15.74;92.21
74329;BME280;62749;51.982;5.916;2023-05-09T12:24:41;100893.47;;;15.72;93.23
74329;BME280;62749;51.982;5.916;2023-05-09T12:27:10;100906.91;;;15.70;92.99
74329;BME280;62749;51.982;5.916;2023-05-09T12:29:40;100888.06;;;15.59;92.73
74329;BME280;62749;51.982;5.916;2023-05-09T12:32:11;100894.53;;;15.69;93.67
74329;BME280;62749;51.982;5.916;2023-05-09T12:34:42;100905.78;;;15.74;92.90
74329;BME280;62749;51.982;5.916;2023-05-09T12:37:15;100898.25;;;15.81;93.60
74329;BME280;62749;51.982;5.916;2023-05-09T12:39:59;100893.78;;;15.82;93.18
74329;BME280;62749;51.982;5.916;2023-05-09T12:42:30;100892.38;;;15.90;93.19
74329;BME280;62749;51.982;5.916;2023-05-09T12:45:01;100888.09;;;15.88;92.67
74329;BME280;62749;51.982;5.916;2023-05-09T12:47:30;100882.00;;;15.86;93.46
74329;BME280;62749;51.982;5.916;2023-05-09T12:50:02;100887.34;;;15.86;90.95
74329;BME280;62749;51.982;5.916;2023-05-09T12:52:33;100877.16;;;15.92;92.45
74329;BME280;62749;51.982;5.916;2023-05-09T12:55:10;100870.50;;;15.85;91.45
74329;BME280;62749;51.982;5.916;2023-05-09T12:57:56;100871.16;;;15.74;92.66
74329;BME280;62749;51.982;5.916;2023-05-09T13:00:27;100870.09;;;15.48;93.75
74329;BME280;62749;51.982;5.916;2023-05-09T13:02:56;100875.03;;;15.69;95.03
74329;BME280;62749;51.982;5.916;2023-05-09T13:05:26;100878.09;;;15.62;94.08
74329;BME280;62749;51.982;5.916;2023-05-09T13:07:56;100870.56;;;15.69;93.54